LPMT

Montijo Airport

Montijo, Portugal
TAF LPMT 200506Z 2006/2106 34013KT 9999 SCT020 BKN035 TEMPO 2006/2009 8000 -SHRA SCT015 BKN025 TEMPO 2009/2018 34016G28KT BECMG 2018/2021 35008KT
Issued Valid From Valid To
Jan-20 @ 05:06 UTC
(6 hours ago)
Jan-20 @ 06:00 UTC
(5 hours ago)
Jan-21 @ 06:00 UTC
(in 19 hours)
Jan-20 @ 06:00 to Jan-20 @ 18:00
TAF LPMT 200506Z 2006/2106 34013KT 9999 SCT020 BKN035
Wind Visibility Clouds
340° at 13 knots 10,000+ meters
  • Scattered at 2,000' AGL
  • Broken at 3,500' AGL
Expired Click to View Jan-20 @ 06:00 to Jan-20 @ 09:00
TEMPO 2006/2009 8000 -SHRA SCT015 BKN025
Visibility Clouds Conditions
7,998 meters
  • Scattered at 1,500' AGL
  • Broken at 2,500' AGL
  • Light Rain
Temporary Jan-20 @ 09:00 to Jan-20 @ 18:00
TEMPO 2009/2018 34016G28KT
Wind
340° at 16 knots
 Gusting to 28 knots
Becoming Jan-20 @ 18:00 to Jan-21 @ 06:00
BECMG 2018/2021 35008KT
Wind Visibility Clouds
350° at 8 knots 10,000+ meters
  • Scattered at 2,000' AGL
  • Broken at 3,500' AGL
TAF LPMT 200506Z 2006/2106 34013KT 9999 SCT020 BKN035 TEMPO 2006/2009 8000 -SHRA SCT015 BKN025 TEMPO 2009/2018 34016G28KT BECMG 2018/2021 35008KT
Issued Jan-20 @ 05:06 UTC
(6 hours ago)
Valid From Jan-20 @ 06:00 UTC
(5 hours ago)
Valid To Jan-21 @ 06:00 UTC
(in 19 hours)
Jan-20 @ 06:00 - Jan-20 @ 18:00
Wind Visibility
340° at 13 knots 10,000+ meters
Clouds
  • Scattered at 2,000' AGL
  • Broken at 3,500' AGL
Jan-20 @ 06:00 - Jan-20 @ 09:00
Clouds
  • Scattered at 1,500' AGL
  • Broken at 2,500' AGL
Conditions
  • Light Rain
Temporary Jan-20 @ 09:00 - Jan-20 @ 18:00
Wind
340° at 16 knots
 Gusting to 28 knots
Becoming Jan-20 @ 18:00 - Jan-21 @ 06:00
Wind Visibility
350° at 8 knots 10,000+ meters
Clouds
  • Scattered at 2,000' AGL
  • Broken at 3,500' AGL